sensor_id;sensor_type;location;lat;lon;timestamp;noise_LAeq;noise_LA_min;noise_LA_max;noise_LA01;noise_LA95
71034;Laerm;58847;52.378;4.740;2023-01-28T00:00:06;50.61;49.12;55.18;;
71034;Laerm;58847;52.378;4.740;2023-01-28T00:00:17;50.31;48.72;54.74;;
71034;Laerm;58847;52.378;4.740;2023-01-28T00:00:30;50.26;48.83;56.02;;
71034;Laerm;58847;52.378;4.740;2023-01-28T00:00:40;50.54;48.40;54.51;;
71034;Laerm;58847;52.378;4.740;2023-01-28T00:00:50;49.96;48.51;54.39;;
71034;Laerm;58847;52.378;4.740;2023-01-28T00:01:07;50.01;48.55;54.30;;
71034;Laerm;58847;52.378;4.740;2023-01-28T00:01:17;50.39;48.46;58.64;;
71034;Laerm;58847;52.378;4.740;2023-01-28T00:01:28;49.51;47.96;55.21;;
71034;Laerm;58847;52.378;4.740;2023-01-28T00:01:41;49.52;47.93;57.04;;
71034;Laerm;58847;52.378;4.740;2023-01-28T00:01:51;49.92;47.90;59.54;;
71034;Laerm;58847;52.378;4.740;2023-01-28T00:02:02;50.23;48.19;58.14;;
71034;Laerm;58847;52.378;4.740;2023-01-28T00:02:12;50.34;48.11;57.27;;
71034;Laerm;58847;52.378;4.740;2023-01-28T00:02:23;50.56;48.49;57.42;;
71034;Laerm;58847;52.378;4.740;2023-01-28T00:02:34;50.00;48.18;55.93;;
71034;Laerm;58847;52.378;4.740;2023-01-28T00:02:45;49.90;47.84;57.01;;
71034;Laerm;58847;52.378;4.740;2023-01-28T00:02:56;50.11;48.09;55.29;;
71034;Laerm;58847;52.378;4.740;2023-01-28T00:03:07;50.23;47.90;57.33;;
71034;Laerm;58847;52.378;4.740;2023-01-28T00:03:17;49.88;47.90;56.50;;
71034;Laerm;58847;52.378;4.740;2023-01-28T00:03:27;49.82;47.94;54.96;;
71034;Laerm;58847;52.378;4.740;2023-01-28T00:03:37;49.89;47.97;57.56;;
71034;Laerm;58847;52.378;4.740;2023-01-28T00:03:49;49.75;48.01;54.64;;
71034;Laerm;58847;52.378;4.740;2023-01-28T00:04:02;50.10;47.97;66.31;;
71034;Laerm;58847;52.378;4.740;2023-01-28T00:04:13;49.13;47.84;51.39;;
71034;Laerm;58847;52.378;4.740;2023-01-28T00:04:24;49.36;47.85;52.16;;
71034;Laerm;58847;52.378;4.740;2023-01-28T00:04:34;49.08;47.50;52.63;;
71034;Laerm;58847;52.378;4.740;2023-01-28T00:04:44;49.13;47.55;54.04;;
71034;Laerm;58847;52.378;4.740;2023-01-28T00:04:55;48.80;47.67;52.65;;
71034;Laerm;58847;52.378;4.740;2023-01-28T00:05:05;48.91;47.75;51.91;;
71034;Laerm;58847;52.378;4.740;2023-01-28T00:05:15;49.17;47.63;53.28;;
71034;Laerm;58847;52.378;4.740;2023-01-28T00:05:26;49.14;47.75;53.54;;
71034;Laerm;58847;52.378;4.740;2023-01-28T00:05:36;49.45;48.03;54.64;;
71034;Laerm;58847;52.378;4.740;2023-01-28T00:05:46;49.69;48.17;56.54;;
71034;Laerm;58847;52.378;4.740;2023-01-28T00:06:03;49.85;48.36;54.30;;
71034;Laerm;58847;52.378;4.740;2023-01-28T00:06:14;49.59;47.66;54.31;;
71034;Laerm;58847;52.378;4.740;2023-01-28T00:06:24;49.56;48.11;52.64;;
71034;Laerm;58847;52.378;4.740;2023-01-28T00:06:34;49.38;47.90;53.52;;
71034;Laerm;58847;52.378;4.740;2023-01-28T00:06:45;49.46;47.78;52.61;;
71034;Laerm;58847;52.378;4.740;2023-01-28T00:06:55;49.41;47.78;52.12;;
71034;Laerm;58847;52.378;4.740;2023-01-28T00:07:06;49.51;48.20;53.04;;
71034;Laerm;58847;52.378;4.740;2023-01-28T00:07:16;49.72;47.98;53.27;;
71034;Laerm;58847;52.378;4.740;2023-01-28T00:07:28;48.91;47.75;52.46;;
71034;Laerm;58847;52.378;4.740;2023-01-28T00:07:38;48.88;47.44;51.92;;
71034;Laerm;58847;52.378;4.740;2023-01-28T00:07:49;49.04;47.94;52.68;;
71034;Laerm;58847;52.378;4.740;2023-01-28T00:07:59;49.42;47.75;52.77;;
71034;Laerm;58847;52.378;4.740;2023-01-28T00:08:09;49.56;48.28;52.02;;
71034;Laerm;58847;52.378;4.740;2023-01-28T00:08:20;52.46;48.43;57.54;;
71034;Laerm;58847;52.378;4.740;2023-01-28T00:08:30;52.00;47.91;58.05;;
71034;Laerm;58847;52.378;4.740;2023-01-28T00:08:42;49.69;47.93;53.37;;
71034;Laerm;58847;52.378;4.740;2023-01-28T00:08:53;49.66;47.96;53.19;;
71034;Laerm;58847;52.378;4.740;2023-01-28T00:09:04;49.44;48.03;52.67;;
71034;Laerm;58847;52.378;4.740;2023-01-28T00:09:15;49.78;47.92;53.84;;
71034;Laerm;58847;52.378;4.740;2023-01-28T00:09:25;50.00;47.60;53.67;;
71034;Laerm;58847;52.378;4.740;2023-01-28T00:09:35;50.10;47.89;54.31;;
71034;Laerm;58847;52.378;4.740;2023-01-28T00:09:45;50.05;48.12;53.62;;
71034;Laerm;58847;52.378;4.740;2023-01-28T00:09:56;49.77;47.91;54.04;;
71034;Laerm;58847;52.378;4.740;2023-01-28T00:10:08;49.12;47.94;55.10;;
71034;Laerm;58847;52.378;4.740;2023-01-28T00:10:18;50.41;47.86;57.34;;
71034;Laerm;58847;52.378;4.740;2023-01-28T00:10:28;49.42;47.79;56.53;;
71034;Laerm;58847;52.378;4.740;2023-01-28T00:10:39;50.69;48.13;57.81;;
71034;Laerm;58847;52.378;4.740;2023-01-28T00:10:49;51.26;48.25;57.72;;
71034;Laerm;58847;52.378;4.740;2023-01-28T00:11:00;51.14;48.38;58.35;;
71034;Laerm;58847;52.378;4.740;2023-01-28T00:11:12;52.85;48.53;60.75;;
71034;Laerm;58847;52.378;4.740;2023-01-28T00:11:22;55.80;51.09;59.89;;
71034;Laerm;58847;52.378;4.740;2023-01-28T00:11:32;55.29;50.54;59.34;;
71034;Laerm;58847;52.378;4.740;2023-01-28T00:11:43;53.32;49.74;56.53;;
71034;Laerm;58847;52.378;4.740;2023-01-28T00:11:53;53.94;49.97;57.17;;
71034;Laerm;58847;52.378;4.740;2023-01-28T00:12:03;52.63;49.60;56.01;;
71034;Laerm;58847;52.378;4.740;2023-01-28T00:12:14;53.40;49.94;56.88;;
71034;Laerm;58847;52.378;4.740;2023-01-28T00:12:24;53.10;49.38;57.66;;
71034;Laerm;58847;52.378;4.740;2023-01-28T00:12:36;53.38;49.04;59.12;;
71034;Laerm;58847;52.378;4.740;2023-01-28T00:12:46;52.73;49.18;56.81;;
71034;Laerm;58847;52.378;4.740;2023-01-28T00:12:56;53.87;50.68;58.52;;
71034;Laerm;58847;52.378;4.740;2023-01-28T00:13:07;56.71;50.31;61.01;;
71034;Laerm;58847;52.378;4.740;2023-01-28T00:13:17;55.07;49.39;60.18;;
71034;Laerm;58847;52.378;4.740;2023-01-28T00:13:27;57.73;49.30;62.12;;
71034;Laerm;58847;52.378;4.740;2023-01-28T00:13:38;51.93;49.42;58.49;;
71034;Laerm;58847;52.378;4.740;2023-01-28T00:13:51;52.53;49.33;56.22;;
71034;Laerm;58847;52.378;4.740;2023-01-28T00:14:02;52.63;50.56;57.92;;
71034;Laerm;58847;52.378;4.740;2023-01-28T00:14:13;52.24;50.19;54.72;;
71034;Laerm;58847;52.378;4.740;2023-01-28T00:14:24;51.81;49.33;54.83;;
71034;Laerm;58847;52.378;4.740;2023-01-28T00:14:34;53.30;48.78;58.02;;
71034;Laerm;58847;52.378;4.740;2023-01-28T00:14:44;54.78;51.43;57.53;;
71034;Laerm;58847;52.378;4.740;2023-01-28T00:14:58;57.77;52.78;62.30;;
71034;Laerm;58847;52.378;4.740;2023-01-28T00:15:08;56.03;51.69;60.78;;
71034;Laerm;58847;52.378;4.740;2023-01-28T00:15:19;55.91;51.52;63.62;;
71034;Laerm;58847;52.378;4.740;2023-01-28T00:15:30;53.00;50.17;57.91;;
71034;Laerm;58847;52.378;4.740;2023-01-28T00:15:40;52.12;49.77;54.16;;
71034;Laerm;58847;52.378;4.740;2023-01-28T00:15:54;52.84;50.04;58.40;;
71034;Laerm;58847;52.378;4.740;2023-01-28T00:16:05;52.74;50.28;54.81;;
71034;Laerm;58847;52.378;4.740;2023-01-28T00:16:19;52.91;49.75;59.07;;
71034;Laerm;58847;52.378;4.740;2023-01-28T00:16:31;52.34;49.64;58.95;;
71034;Laerm;58847;52.378;4.740;2023-01-28T00:16:42;52.72;49.58;58.72;;
71034;Laerm;58847;52.378;4.740;2023-01-28T00:16:52;53.77;50.73;57.45;;
71034;Laerm;58847;52.378;4.740;2023-01-28T00:17:04;53.20;49.62;57.68;;
71034;Laerm;58847;52.378;4.740;2023-01-28T00:17:14;52.38;49.68;59.49;;
71034;Laerm;58847;52.378;4.740;2023-01-28T00:17:30;51.07;48.93;55.91;;
71034;Laerm;58847;52.378;4.740;2023-01-28T00:17:40;51.83;48.92;56.65;;
71034;Laerm;58847;52.378;4.740;2023-01-28T00:17:50;52.00;48.81;56.42;;
71034;Laerm;58847;52.378;4.740;2023-01-28T00:18:01;51.91;48.27;56.36;;
71034;Laerm;58847;52.378;4.740;2023-01-28T00:18:11;50.58;48.65;54.74;;
71034;Laerm;58847;52.378;4.740;2023-01-28T00:18:22;50.42;48.24;55.41;;
71034;Laerm;58847;52.378;4.740;2023-01-28T00:18:34;51.52;48.09;57.33;;
71034;Laerm;58847;52.378;4.740;2023-01-28T00:18:45;55.58;49.73;58.75;;
71034;Laerm;58847;52.378;4.740;2023-01-28T00:18:55;54.55;48.74;59.92;;
71034;Laerm;58847;52.378;4.740;2023-01-28T00:19:05;51.71;49.02;56.82;;
71034;Laerm;58847;52.378;4.740;2023-01-28T00:19:16;52.56;48.58;56.21;;
71034;Laerm;58847;52.378;4.740;2023-01-28T00:19:26;52.18;48.79;55.54;;
71034;Laerm;58847;52.378;4.740;2023-01-28T00:19:36;52.44;49.03;56.27;;
71034;Laerm;58847;52.378;4.740;2023-01-28T00:19:47;52.13;48.60;56.31;;
71034;Laerm;58847;52.378;4.740;2023-01-28T00:19:57;53.38;50.01;56.86;;
71034;Laerm;58847;52.378;4.740;2023-01-28T00:20:08;55.15;52.80;56.89;;
71034;Laerm;58847;52.378;4.740;2023-01-28T00:20:18;54.08;50.79;56.28;;
71034;Laerm;58847;52.378;4.740;2023-01-28T00:20:28;54.83;53.23;58.17;;
71034;Laerm;58847;52.378;4.740;2023-01-28T00:20:38;54.06;50.44;56.20;;
71034;Laerm;58847;52.378;4.740;2023-01-28T00:20:56;54.06;52.30;56.11;;
71034;Laerm;58847;52.378;4.740;2023-01-28T00:21:10;57.08;49.88;60.60;;
71034;Laerm;58847;52.378;4.740;2023-01-28T00:21:21;53.84;49.86;61.16;;
71034;Laerm;58847;52.378;4.740;2023-01-28T00:21:31;51.95;49.37;55.17;;
71034;Laerm;58847;52.378;4.740;2023-01-28T00:21:44;51.19;49.55;55.96;;
71034;Laerm;58847;52.378;4.740;2023-01-28T00:21:54;50.88;48.95;53.60;;
71034;Laerm;58847;52.378;4.740;2023-01-28T00:22:06;50.30;48.90;52.43;;
71034;Laerm;58847;52.378;4.740;2023-01-28T00:22:16;50.47;48.95;53.61;;
71034;Laerm;58847;52.378;4.740;2023-01-28T00:22:26;50.29;48.91;52.88;;
71034;Laerm;58847;52.378;4.740;2023-01-28T00:22:37;50.48;48.55;54.36;;
71034;Laerm;58847;52.378;4.740;2023-01-28T00:22:47;52.58;48.88;61.68;;
71034;Laerm;58847;52.378;4.740;2023-01-28T00:22:59;52.67;48.66;56.68;;
71034;Laerm;58847;52.378;4.740;2023-01-28T00:23:09;51.00;48.65;57.93;;
71034;Laerm;58847;52.378;4.740;2023-01-28T00:23:20;50.21;48.61;52.22;;
71034;Laerm;58847;52.378;4.740;2023-01-28T00:23:31;50.04;48.50;52.53;;
71034;Laerm;58847;52.378;4.740;2023-01-28T00:23:42;49.88;48.28;51.85;;
71034;Laerm;58847;52.378;4.740;2023-01-28T00:23:53;50.31;48.81;51.95;;
71034;Laerm;58847;52.378;4.740;2023-01-28T00:24:04;49.93;48.41;52.11;;
71034;Laerm;58847;52.378;4.740;2023-01-28T00:24:15;49.78;48.61;51.67;;
71034;Laerm;58847;52.378;4.740;2023-01-28T00:24:27;50.19;48.28;54.36;;
71034;Laerm;58847;52.378;4.740;2023-01-28T00:24:37;49.83;48.52;51.87;;
71034;Laerm;58847;52.378;4.740;2023-01-28T00:24:47;49.97;48.61;55.18;;
71034;Laerm;58847;52.378;4.740;2023-01-28T00:24:58;49.79;48.49;60.24;;
71034;Laerm;58847;52.378;4.740;2023-01-28T00:25:11;50.60;48.34;54.28;;
71034;Laerm;58847;52.378;4.740;2023-01-28T00:25:21;52.07;48.79;57.42;;
71034;Laerm;58847;52.378;4.740;2023-01-28T00:25:32;50.43;48.27;57.38;;
71034;Laerm;58847;52.378;4.740;2023-01-28T00:25:42;50.40;48.08;56.56;;
71034;Laerm;58847;52.378;4.740;2023-01-28T00:25:52;50.81;47.90;57.64;;
71034;Laerm;58847;52.378;4.740;2023-01-28T00:26:08;50.07;48.38;55.97;;
71034;Laerm;58847;52.378;4.740;2023-01-28T00:26:19;50.94;48.24;55.47;;
71034;Laerm;58847;52.378;4.740;2023-01-28T00:26:29;52.86;50.17;57.37;;
71034;Laerm;58847;52.378;4.740;2023-01-28T00:26:40;51.65;49.00;57.22;;
71034;Laerm;58847;52.378;4.740;2023-01-28T00:26:50;50.48;48.71;56.96;;
71034;Laerm;58847;52.378;4.740;2023-01-28T00:27:01;50.72;48.48;56.68;;
71034;Laerm;58847;52.378;4.740;2023-01-28T00:27:12;49.89;48.54;56.66;;
71034;Laerm;58847;52.378;4.740;2023-01-28T00:27:22;50.89;48.48;57.06;;
71034;Laerm;58847;52.378;4.740;2023-01-28T00:27:33;50.43;49.00;57.40;;
71034;Laerm;58847;52.378;4.740;2023-01-28T00:27:46;50.50;48.69;56.27;;
71034;Laerm;58847;52.378;4.740;2023-01-28T00:27:56;50.15;48.54;55.48;;
71034;Laerm;58847;52.378;4.740;2023-01-28T00:28:06;50.53;48.15;56.92;;
71034;Laerm;58847;52.378;4.740;2023-01-28T00:28:17;49.70;48.00;54.04;;
71034;Laerm;58847;52.378;4.740;2023-01-28T00:28:27;49.73;48.09;54.00;;
71034;Laerm;58847;52.378;4.740;2023-01-28T00:28:38;50.99;49.42;55.10;;
71034;Laerm;58847;52.378;4.740;2023-01-28T00:28:48;51.46;48.76;59.12;;
71034;Laerm;58847;52.378;4.740;2023-01-28T00:28:58;50.15;47.93;54.89;;
71034;Laerm;58847;52.378;4.740;2023-01-28T00:29:09;49.44;48.10;59.43;;
71034;Laerm;58847;52.378;4.740;2023-01-28T00:29:20;49.18;47.95;50.74;;
71034;Laerm;58847;52.378;4.740;2023-01-28T00:29:30;49.39;47.71;53.36;;
71034;Laerm;58847;52.378;4.740;2023-01-28T00:29:40;50.51;48.90;53.47;;
71034;Laerm;58847;52.378;4.740;2023-01-28T00:29:51;52.17;48.32;61.79;;
71034;Laerm;58847;52.378;4.740;2023-01-28T00:30:02;50.19;48.29;55.45;;
71034;Laerm;58847;52.378;4.740;2023-01-28T00:30:14;50.04;47.85;53.57;;
71034;Laerm;58847;52.378;4.740;2023-01-28T00:30:24;51.62;48.43;54.29;;
71034;Laerm;58847;52.378;4.740;2023-01-28T00:30:34;50.53;48.11;52.40;;
71034;Laerm;58847;52.378;4.740;2023-01-28T00:30:46;53.27;48.73;56.56;;
71034;Laerm;58847;52.378;4.740;2023-01-28T00:30:56;54.37;50.16;57.84;;
71034;Laerm;58847;52.378;4.740;2023-01-28T00:31:16;52.06;49.18;54.21;;
71034;Laerm;58847;52.378;4.740;2023-01-28T00:31:27;51.51;48.83;60.82;;
71034;Laerm;58847;52.378;4.740;2023-01-28T00:31:37;52.51;48.56;56.37;;
71034;Laerm;58847;52.378;4.740;2023-01-28T00:31:49;51.82;49.52;58.38;;
71034;Laerm;58847;52.378;4.740;2023-01-28T00:32:00;52.31;49.45;58.20;;
71034;Laerm;58847;52.378;4.740;2023-01-28T00:32:10;53.89;50.22;58.33;;
71034;Laerm;58847;52.378;4.740;2023-01-28T00:32:20;52.90;50.14;55.97;;
71034;Laerm;58847;52.378;4.740;2023-01-28T00:32:31;52.70;48.22;57.53;;
71034;Laerm;58847;52.378;4.740;2023-01-28T00:32:41;52.64;50.07;55.09;;
71034;Laerm;58847;52.378;4.740;2023-01-28T00:32:52;53.12;49.52;56.88;;
71034;Laerm;58847;52.378;4.740;2023-01-28T00:33:03;52.26;49.17;56.23;;
71034;Laerm;58847;52.378;4.740;2023-01-28T00:33:13;51.86;50.16;57.02;;
71034;Laerm;58847;52.378;4.740;2023-01-28T00:33:23;51.02;48.93;58.99;;
71034;Laerm;58847;52.378;4.740;2023-01-28T00:33:34;54.68;48.72;62.14;;
71034;Laerm;58847;52.378;4.740;2023-01-28T00:33:45;51.41;48.10;56.44;;
71034;Laerm;58847;52.378;4.740;2023-01-28T00:33:56;48.91;47.86;54.92;;
71034;Laerm;58847;52.378;4.740;2023-01-28T00:34:07;49.84;47.97;52.61;;
71034;Laerm;58847;52.378;4.740;2023-01-28T00:34:18;51.67;47.82;54.47;;
71034;Laerm;58847;52.378;4.740;2023-01-28T00:34:28;52.66;50.19;56.00;;
71034;Laerm;58847;52.378;4.740;2023-01-28T00:34:39;51.83;47.98;56.18;;
71034;Laerm;58847;52.378;4.740;2023-01-28T00:34:49;50.27;48.29;56.98;;
71034;Laerm;58847;52.378;4.740;2023-01-28T00:34:59;50.36;48.22;57.68;;
71034;Laerm;58847;52.378;4.740;2023-01-28T00:35:10;49.52;47.90;51.15;;
71034;Laerm;58847;52.378;4.740;2023-01-28T00:35:20;49.15;47.84;51.50;;
71034;Laerm;58847;52.378;4.740;2023-01-28T00:35:31;49.34;47.89;51.04;;
71034;Laerm;58847;52.378;4.740;2023-01-28T00:35:41;49.65;48.18;51.17;;
71034;Laerm;58847;52.378;4.740;2023-01-28T00:35:58;49.24;47.70;51.05;;
71034;Laerm;58847;52.378;4.740;2023-01-28T00:36:09;49.91;48.07;52.86;;
71034;Laerm;58847;52.378;4.740;2023-01-28T00:36:20;49.49;48.21;51.32;;
71034;Laerm;58847;52.378;4.740;2023-01-28T00:36:30;49.48;48.12;51.11;;
71034;Laerm;58847;52.378;4.740;2023-01-28T00:36:48;49.73;48.02;52.06;;
71034;Laerm;58847;52.378;4.740;2023-01-28T00:37:06;50.44;48.51;55.70;;
71034;Laerm;58847;52.378;4.740;2023-01-28T00:37:17;49.66;48.37;51.46;;
71034;Laerm;58847;52.378;4.740;2023-01-28T00:37:27;49.76;47.85;53.03;;
71034;Laerm;58847;52.378;4.740;2023-01-28T00:37:37;48.63;47.52;49.94;;
71034;Laerm;58847;52.378;4.740;2023-01-28T00:37:47;49.13;47.46;51.90;;
71034;Laerm;58847;52.378;4.740;2023-01-28T00:37:58;48.97;47.66;52.68;;
71034;Laerm;58847;52.378;4.740;2023-01-28T00:38:09;49.64;47.56;52.66;;
71034;Laerm;58847;52.378;4.740;2023-01-28T00:38:20;48.77;47.64;50.51;;
71034;Laerm;58847;52.378;4.740;2023-01-28T00:38:30;50.18;47.64;52.90;;
71034;Laerm;58847;52.378;4.740;2023-01-28T00:38:40;51.70;48.30;56.73;;
71034;Laerm;58847;52.378;4.740;2023-01-28T00:38:55;49.60;47.78;51.59;;
71034;Laerm;58847;52.378;4.740;2023-01-28T00:39:05;50.64;48.42;53.40;;
71034;Laerm;58847;52.378;4.740;2023-01-28T00:39:17;49.91;48.10;52.80;;
71034;Laerm;58847;52.378;4.740;2023-01-28T00:39:27;49.53;47.80;54.96;;
71034;Laerm;58847;52.378;4.740;2023-01-28T00:39:38;49.68;48.26;51.51;;
71034;Laerm;58847;52.378;4.740;2023-01-28T00:39:48;50.05;47.97;54.42;;
71034;Laerm;58847;52.378;4.740;2023-01-28T00:39:58;52.30;48.16;59.89;;
71034;Laerm;58847;52.378;4.740;2023-01-28T00:40:09;51.89;48.40;60.63;;
71034;Laerm;58847;52.378;4.740;2023-01-28T00:40:19;51.87;48.39;59.21;;
71034;Laerm;58847;52.378;4.740;2023-01-28T00:40:30;51.83;48.55;60.05;;
71034;Laerm;58847;52.378;4.740;2023-01-28T00:40:40;52.17;47.93;62.02;;
71034;Laerm;58847;52.378;4.740;2023-01-28T00:40:50;51.06;48.02;59.65;;
71034;Laerm;58847;52.378;4.740;2023-01-28T00:41:18;50.61;47.90;60.59;;
71034;Laerm;58847;52.378;4.740;2023-01-28T00:41:31;53.62;48.02;64.77;;
71034;Laerm;58847;52.378;4.740;2023-01-28T00:41:41;53.08;48.24;63.62;;
71034;Laerm;58847;52.378;4.740;2023-01-28T00:41:52;51.69;47.41;65.08;;
71034;Laerm;58847;52.378;4.740;2023-01-28T00:42:03;50.68;48.01;61.29;;
71034;Laerm;58847;52.378;4.740;2023-01-28T00:42:13;50.17;48.15;58.77;;
71034;Laerm;58847;52.378;4.740;2023-01-28T00:42:24;50.72;48.16;58.85;;
71034;Laerm;58847;52.378;4.740;2023-01-28T00:42:35;51.73;48.47;60.38;;
71034;Laerm;58847;52.378;4.740;2023-01-28T00:42:46;51.66;47.90;60.25;;
71034;Laerm;58847;52.378;4.740;2023-01-28T00:42:56;51.62;48.49;60.67;;
71034;Laerm;58847;52.378;4.740;2023-01-28T00:43:06;52.87;48.74;62.98;;
71034;Laerm;58847;52.378;4.740;2023-01-28T00:43:21;50.37;48.69;55.08;;
71034;Laerm;58847;52.378;4.740;2023-01-28T00:43:31;50.25;48.35;55.83;;
71034;Laerm;58847;52.378;4.740;2023-01-28T00:43:42;49.36;48.14;51.06;;
71034;Laerm;58847;52.378;4.740;2023-01-28T00:43:53;49.68;48.29;51.49;;
71034;Laerm;58847;52.378;4.740;2023-01-28T00:44:04;50.44;48.61;52.48;;
71034;Laerm;58847;52.378;4.740;2023-01-28T00:44:14;50.70;48.88;54.45;;
71034;Laerm;58847;52.378;4.740;2023-01-28T00:44:24;49.73;47.79;52.70;;
71034;Laerm;58847;52.378;4.740;2023-01-28T00:44:34;48.97;47.85;50.36;;
71034;Laerm;58847;52.378;4.740;2023-01-28T00:44:45;49.03;47.43;50.33;;
71034;Laerm;58847;52.378;4.740;2023-01-28T00:44:55;48.80;47.52;50.42;;
71034;Laerm;58847;52.378;4.740;2023-01-28T00:45:07;48.88;47.64;52.47;;
71034;Laerm;58847;52.378;4.740;2023-01-28T00:45:17;48.69;47.57;50.52;;
71034;Laerm;58847;52.378;4.740;2023-01-28T00:45:28;49.63;47.59;51.49;;
71034;Laerm;58847;52.378;4.740;2023-01-28T00:45:38;49.17;47.84;51.43;;
71034;Laerm;58847;52.378;4.740;2023-01-28T00:45:49;49.99;47.45;53.03;;
71034;Laerm;58847;52.378;4.740;2023-01-28T00:45:59;52.37;49.41;55.03;;
71034;Laerm;58847;52.378;4.740;2023-01-28T00:46:09;53.87;48.60;58.94;;
71034;Laerm;58847;52.378;4.740;2023-01-28T00:46:20;52.69;49.42;56.25;;
71034;Laerm;58847;52.378;4.740;2023-01-28T00:46:31;52.81;49.04;56.38;;
71034;Laerm;58847;52.378;4.740;2023-01-28T00:46:42;51.29;48.49;54.15;;
71034;Laerm;58847;52.378;4.740;2023-01-28T00:46:52;53.49;48.76;58.74;;
71034;Laerm;58847;52.378;4.740;2023-01-28T00:47:02;54.05;48.53;58.73;;
71034;Laerm;58847;52.378;4.740;2023-01-28T00:47:12;52.54;48.48;55.49;;
71034;Laerm;58847;52.378;4.740;2023-01-28T00:47:23;53.57;48.52;58.64;;
71034;Laerm;58847;52.378;4.740;2023-01-28T00:47:33;53.24;48.26;56.60;;
71034;Laerm;58847;52.378;4.740;2023-01-28T00:47:43;53.21;48.59;56.69;;
71034;Laerm;58847;52.378;4.740;2023-01-28T00:47:54;53.59;48.79;56.51;;
71034;Laerm;58847;52.378;4.740;2023-01-28T00:48:04;52.48;48.34;55.70;;
71034;Laerm;58847;52.378;4.740;2023-01-28T00:48:15;51.98;48.60;54.77;;
71034;Laerm;58847;52.378;4.740;2023-01-28T00:48:26;52.26;48.55;55.07;;
71034;Laerm;58847;52.378;4.740;2023-01-28T00:48:36;54.13;48.45;57.20;;
71034;Laerm;58847;52.378;4.740;2023-01-28T00:48:47;49.76;47.72;55.03;;
71034;Laerm;58847;52.378;4.740;2023-01-28T00:48:57;51.51;47.52;57.17;;
71034;Laerm;58847;52.378;4.740;2023-01-28T00:49:07;49.85;48.05;54.23;;
71034;Laerm;58847;52.378;4.740;2023-01-28T00:49:18;49.95;48.52;56.30;;
71034;Laerm;58847;52.378;4.740;2023-01-28T00:49:28;49.68;47.97;56.52;;
71034;Laerm;58847;52.378;4.740;2023-01-28T00:49:40;50.81;48.37;55.11;;
71034;Laerm;58847;52.378;4.740;2023-01-28T00:49:50;52.91;48.83;56.85;;
71034;Laerm;58847;52.378;4.740;2023-01-28T00:50:00;50.16;48.52;51.44;;
71034;Laerm;58847;52.378;4.740;2023-01-28T00:50:11;49.89;48.82;51.94;;
71034;Laerm;58847;52.378;4.740;2023-01-28T00:50:21;50.59;48.81;52.93;;
71034;Laerm;58847;52.378;4.740;2023-01-28T00:50:31;50.65;48.78;56.27;;
71034;Laerm;58847;52.378;4.740;2023-01-28T00:50:42;50.88;48.38;55.52;;
71034;Laerm;58847;52.378;4.740;2023-01-28T00:50:53;52.32;48.27;56.97;;
71034;Laerm;58847;52.378;4.740;2023-01-28T00:51:03;50.11;48.32;56.17;;
71034;Laerm;58847;52.378;4.740;2023-01-28T00:51:15;53.84;48.50;56.17;;
71034;Laerm;58847;52.378;4.740;2023-01-28T00:51:26;55.83;53.30;57.90;;
71034;Laerm;58847;52.378;4.740;2023-01-28T00:51:36;54.80;51.55;58.29;;
71034;Laerm;58847;52.378;4.740;2023-01-28T00:51:46;55.85;52.10;59.20;;
71034;Laerm;58847;52.378;4.740;2023-01-28T00:51:58;56.00;52.96;58.86;;
71034;Laerm;58847;52.378;4.740;2023-01-28T00:52:08;55.09;52.87;57.28;;
71034;Laerm;58847;52.378;4.740;2023-01-28T00:52:18;55.25;53.44;57.01;;
71034;Laerm;58847;52.378;4.740;2023-01-28T00:52:29;55.33;52.95;57.01;;
71034;Laerm;58847;52.378;4.740;2023-01-28T00:52:39;54.91;52.27;56.63;;
71034;Laerm;58847;52.378;4.740;2023-01-28T00:52:50;54.16;50.26;56.57;;
71034;Laerm;58847;52.378;4.740;2023-01-28T00:53:01;55.48;52.64;58.43;;
71034;Laerm;58847;52.378;4.740;2023-01-28T00:53:11;55.94;52.45;57.98;;
71034;Laerm;58847;52.378;4.740;2023-01-28T00:53:22;55.14;50.01;57.79;;
71034;Laerm;58847;52.378;4.740;2023-01-28T00:53:32;54.98;50.72;58.22;;
71034;Laerm;58847;52.378;4.740;2023-01-28T00:53:46;56.39;53.00;60.15;;
71034;Laerm;58847;52.378;4.740;2023-01-28T00:53:56;56.29;53.86;59.14;;
71034;Laerm;58847;52.378;4.740;2023-01-28T00:54:06;56.83;53.89;59.43;;
71034;Laerm;58847;52.378;4.740;2023-01-28T00:54:17;57.92;53.66;60.98;;
71034;Laerm;58847;52.378;4.740;2023-01-28T00:54:27;59.91;57.52;61.69;;
71034;Laerm;58847;52.378;4.740;2023-01-28T00:54:37;60.47;57.58;63.68;;
71034;Laerm;58847;52.378;4.740;2023-01-28T00:54:47;60.73;49.32;63.15;;
71034;Laerm;58847;52.378;4.740;2023-01-28T00:54:58;57.23;52.73;62.75;;
71034;Laerm;58847;52.378;4.740;2023-01-28T00:55:08;59.49;55.84;63.60;;
71034;Laerm;58847;52.378;4.740;2023-01-28T00:55:18;58.74;55.47;61.07;;
71034;Laerm;58847;52.378;4.740;2023-01-28T00:55:29;59.71;54.35;62.58;;
71034;Laerm;58847;52.378;4.740;2023-01-28T00:55:39;60.44;57.37;63.36;;
71034;Laerm;58847;52.378;4.740;2023-01-28T00:55:52;61.31;57.06;65.35;;
71034;Laerm;58847;52.378;4.740;2023-01-28T00:56:04;63.59;61.54;65.12;;
71034;Laerm;58847;52.378;4.740;2023-01-28T00:56:15;63.91;60.91;65.81;;
71034;Laerm;58847;52.378;4.740;2023-01-28T00:56:26;63.77;60.68;65.60;;
71034;Laerm;58847;52.378;4.740;2023-01-28T00:56:37;64.07;61.59;66.32;;
71034;Laerm;58847;52.378;4.740;2023-01-28T00:56:47;60.72;56.93;65.21;;
71034;Laerm;58847;52.378;4.740;2023-01-28T00:56:58;59.41;56.82;61.96;;
71034;Laerm;58847;52.378;4.740;2023-01-28T00:57:09;60.20;56.51;63.39;;
71034;Laerm;58847;52.378;4.740;2023-01-28T00:57:19;60.32;57.38;62.48;;
71034;Laerm;58847;52.378;4.740;2023-01-28T00:57:30;61.26;58.95;63.12;;
71034;Laerm;58847;52.378;4.740;2023-01-28T00:57:40;60.30;56.20;63.32;;
71034;Laerm;58847;52.378;4.740;2023-01-28T00:57:50;63.48;59.21;66.51;;
71034;Laerm;58847;52.378;4.740;2023-01-28T00:58:01;63.40;59.10;65.64;;
71034;Laerm;58847;52.378;4.740;2023-01-28T00:58:11;65.41;59.37;68.85;;
71034;Laerm;58847;52.378;4.740;2023-01-28T00:58:21;65.20;60.64;69.11;;
71034;Laerm;58847;52.378;4.740;2023-01-28T00:58:34;66.75;63.99;69.72;;
71034;Laerm;58847;52.378;4.740;2023-01-28T00:58:45;65.20;59.68;68.44;;
71034;Laerm;58847;52.378;4.740;2023-01-28T00:58:55;64.80;61.58;66.99;;
71034;Laerm;58847;52.378;4.740;2023-01-28T00:59:06;66.46;63.47;67.86;;
71034;Laerm;58847;52.378;4.740;2023-01-28T00:59:16;66.09;63.94;67.65;;
71034;Laerm;58847;52.378;4.740;2023-01-28T00:59:26;65.77;63.53;67.37;;
71034;Laerm;58847;52.378;4.740;2023-01-28T00:59:37;66.79;64.28;69.20;;
71034;Laerm;58847;52.378;4.740;2023-01-28T00:59:47;67.45;65.74;68.94;;
71034;Laerm;58847;52.378;4.740;2023-01-28T00:59:57;67.17;64.64;68.72;;
71034;Laerm;58847;52.378;4.740;2023-01-28T01:00:08;66.50;64.97;67.47;;
71034;Laerm;58847;52.378;4.740;2023-01-28T01:00:19;67.21;65.53;68.45;;
71034;Laerm;58847;52.378;4.740;2023-01-28T01:00:34;66.79;65.09;68.26;;
71034;Laerm;58847;52.378;4.740;2023-01-28T01:00:44;66.90;65.12;68.35;;
71034;Laerm;58847;52.378;4.740;2023-01-28T01:00:55;66.60;65.01;67.79;;
71034;Laerm;58847;52.378;4.740;2023-01-28T01:01:09;66.36;63.86;67.69;;
71034;Laerm;58847;52.378;4.740;2023-01-28T01:01:21;66.42;64.28;67.92;;